sensor_id;sensor_type;location;lat;lon;timestamp;P1;durP1;ratioP1;P2;durP2;ratioP2
10643;SDS011;5370;50.132;8.626;2022-12-15T00:02:25;34.17;;;22.20;;
10643;SDS011;5370;50.132;8.626;2022-12-15T00:05:09;33.77;;;20.83;;
10643;SDS011;5370;50.132;8.626;2022-12-15T00:07:53;32.27;;;21.27;;
10643;SDS011;5370;50.132;8.626;2022-12-15T00:10:37;31.53;;;21.53;;
10643;SDS011;5370;50.132;8.626;2022-12-15T00:13:21;36.20;;;20.90;;
10643;SDS011;5370;50.132;8.626;2022-12-15T00:16:05;33.57;;;21.70;;
10643;SDS011;5370;50.132;8.626;2022-12-15T00:18:51;30.27;;;21.10;;
10643;SDS011;5370;50.132;8.626;2022-12-15T00:21:35;33.23;;;21.37;;
10643;SDS011;5370;50.132;8.626;2022-12-15T00:24:19;30.50;;;20.33;;
10643;SDS011;5370;50.132;8.626;2022-12-15T00:27:03;31.23;;;20.03;;
10643;SDS011;5370;50.132;8.626;2022-12-15T00:29:48;31.20;;;20.57;;
10643;SDS011;5370;50.132;8.626;2022-12-15T00:32:32;40.17;;;22.23;;
10643;SDS011;5370;50.132;8.626;2022-12-15T00:35:17;36.00;;;20.33;;
10643;SDS011;5370;50.132;8.626;2022-12-15T00:38:07;29.37;;;18.10;;
10643;SDS011;5370;50.132;8.626;2022-12-15T00:40:54;32.23;;;21.37;;
10643;SDS011;5370;50.132;8.626;2022-12-15T00:43:23;38.07;;;21.93;;
10643;SDS011;5370;50.132;8.626;2022-12-15T00:45:50;28.50;;;19.03;;
10643;SDS011;5370;50.132;8.626;2022-12-15T00:48:34;28.63;;;19.97;;
10643;SDS011;5370;50.132;8.626;2022-12-15T00:50:59;31.27;;;19.47;;
10643;SDS011;5370;50.132;8.626;2022-12-15T00:53:25;33.43;;;21.10;;
10643;SDS011;5370;50.132;8.626;2022-12-15T00:56:09;31.47;;;19.17;;
10643;SDS011;5370;50.132;8.626;2022-12-15T00:58:53;30.80;;;19.53;;
10643;SDS011;5370;50.132;8.626;2022-12-15T01:01:38;26.77;;;18.03;;
10643;SDS011;5370;50.132;8.626;2022-12-15T01:04:22;29.60;;;20.43;;
10643;SDS011;5370;50.132;8.626;2022-12-15T01:07:06;31.13;;;19.70;;
10643;SDS011;5370;50.132;8.626;2022-12-15T01:09:50;27.00;;;19.07;;
10643;SDS011;5370;50.132;8.626;2022-12-15T01:12:34;30.63;;;19.40;;
10643;SDS011;5370;50.132;8.626;2022-12-15T01:15:18;30.80;;;18.10;;
10643;SDS011;5370;50.132;8.626;2022-12-15T01:18:02;30.03;;;19.33;;
10643;SDS011;5370;50.132;8.626;2022-12-15T01:20:54;27.27;;;18.90;;
10643;SDS011;5370;50.132;8.626;2022-12-15T01:23:21;28.43;;;18.70;;
10643;SDS011;5370;50.132;8.626;2022-12-15T01:25:46;25.90;;;18.00;;
10643;SDS011;5370;50.132;8.626;2022-12-15T01:28:15;27.83;;;19.40;;
10643;SDS011;5370;50.132;8.626;2022-12-15T01:30:41;29.60;;;19.30;;
10643;SDS011;5370;50.132;8.626;2022-12-15T01:33:06;31.50;;;20.53;;
10643;SDS011;5370;50.132;8.626;2022-12-15T01:35:32;32.10;;;19.03;;
10643;SDS011;5370;50.132;8.626;2022-12-15T01:37:57;29.70;;;18.27;;
10643;SDS011;5370;50.132;8.626;2022-12-15T01:40:23;28.47;;;18.17;;
10643;SDS011;5370;50.132;8.626;2022-12-15T01:43:11;31.73;;;19.47;;
10643;SDS011;5370;50.132;8.626;2022-12-15T01:45:46;29.00;;;19.97;;
10643;SDS011;5370;50.132;8.626;2022-12-15T01:48:13;29.80;;;19.80;;
10643;SDS011;5370;50.132;8.626;2022-12-15T01:50:44;29.53;;;19.17;;
10643;SDS011;5370;50.132;8.626;2022-12-15T01:53:14;26.80;;;18.23;;
10643;SDS011;5370;50.132;8.626;2022-12-15T01:55:41;31.03;;;19.03;;
10643;SDS011;5370;50.132;8.626;2022-12-15T01:58:10;34.37;;;19.27;;
10643;SDS011;5370;50.132;8.626;2022-12-15T02:00:39;31.83;;;20.10;;
10643;SDS011;5370;50.132;8.626;2022-12-15T02:03:05;31.27;;;19.93;;
10643;SDS011;5370;50.132;8.626;2022-12-15T02:05:31;30.43;;;19.87;;
10643;SDS011;5370;50.132;8.626;2022-12-15T02:07:59;27.13;;;18.70;;
10643;SDS011;5370;50.132;8.626;2022-12-15T02:10:26;27.60;;;18.30;;
10643;SDS011;5370;50.132;8.626;2022-12-15T02:13:14;30.97;;;19.47;;
10643;SDS011;5370;50.132;8.626;2022-12-15T02:18:59;27.53;;;18.07;;
10643;SDS011;5370;50.132;8.626;2022-12-15T02:21:45;33.77;;;20.10;;
10643;SDS011;5370;50.132;8.626;2022-12-15T02:25:24;30.63;;;19.10;;
10643;SDS011;5370;50.132;8.626;2022-12-15T02:32:47;27.90;;;18.73;;
10643;SDS011;5370;50.132;8.626;2022-12-15T02:35:38;27.90;;;18.03;;
10643;SDS011;5370;50.132;8.626;2022-12-15T02:38:11;30.53;;;18.93;;
10643;SDS011;5370;50.132;8.626;2022-12-15T02:40:37;34.67;;;21.17;;
10643;SDS011;5370;50.132;8.626;2022-12-15T02:43:03;32.53;;;18.87;;
10643;SDS011;5370;50.132;8.626;2022-12-15T02:48:33;25.73;;;19.43;;
10643;SDS011;5370;50.132;8.626;2022-12-15T02:51:30;28.83;;;18.43;;
10643;SDS011;5370;50.132;8.626;2022-12-15T02:59:37;32.80;;;20.70;;
10643;SDS011;5370;50.132;8.626;2022-12-15T03:02:09;33.87;;;19.37;;
10643;SDS011;5370;50.132;8.626;2022-12-15T03:04:37;28.33;;;19.83;;
10643;SDS011;5370;50.132;8.626;2022-12-15T03:07:05;29.67;;;18.90;;
10643;SDS011;5370;50.132;8.626;2022-12-15T03:09:33;30.03;;;19.37;;
10643;SDS011;5370;50.132;8.626;2022-12-15T03:11:59;28.63;;;19.00;;
10643;SDS011;5370;50.132;8.626;2022-12-15T03:14:25;26.60;;;18.27;;
10643;SDS011;5370;50.132;8.626;2022-12-15T03:16:52;27.93;;;19.07;;
10643;SDS011;5370;50.132;8.626;2022-12-15T03:19:18;29.50;;;18.93;;
10643;SDS011;5370;50.132;8.626;2022-12-15T03:21:44;32.63;;;21.03;;
10643;SDS011;5370;50.132;8.626;2022-12-15T03:24:10;32.67;;;19.87;;
10643;SDS011;5370;50.132;8.626;2022-12-15T03:26:36;29.63;;;21.07;;
10643;SDS011;5370;50.132;8.626;2022-12-15T03:29:01;30.63;;;19.90;;
10643;SDS011;5370;50.132;8.626;2022-12-15T03:31:27;29.93;;;21.10;;
10643;SDS011;5370;50.132;8.626;2022-12-15T03:33:53;32.37;;;20.33;;
10643;SDS011;5370;50.132;8.626;2022-12-15T03:36:19;30.50;;;18.90;;
10643;SDS011;5370;50.132;8.626;2022-12-15T03:38:46;36.27;;;20.93;;
10643;SDS011;5370;50.132;8.626;2022-12-15T03:41:12;33.13;;;20.50;;
10643;SDS011;5370;50.132;8.626;2022-12-15T03:43:38;31.40;;;20.23;;
10643;SDS011;5370;50.132;8.626;2022-12-15T03:46:04;36.97;;;21.53;;
10643;SDS011;5370;50.132;8.626;2022-12-15T03:48:29;31.90;;;20.17;;
10643;SDS011;5370;50.132;8.626;2022-12-15T03:50:55;32.50;;;20.23;;
10643;SDS011;5370;50.132;8.626;2022-12-15T03:53:20;34.70;;;20.57;;
10643;SDS011;5370;50.132;8.626;2022-12-15T03:55:46;27.37;;;19.67;;
10643;SDS011;5370;50.132;8.626;2022-12-15T03:58:12;31.77;;;20.67;;
10643;SDS011;5370;50.132;8.626;2022-12-15T04:00:37;29.10;;;19.83;;
10643;SDS011;5370;50.132;8.626;2022-12-15T04:03:03;33.10;;;20.07;;
10643;SDS011;5370;50.132;8.626;2022-12-15T04:05:29;31.80;;;21.37;;
10643;SDS011;5370;50.132;8.626;2022-12-15T04:07:57;33.53;;;21.97;;
10643;SDS011;5370;50.132;8.626;2022-12-15T04:10:24;37.33;;;22.43;;
10643;SDS011;5370;50.132;8.626;2022-12-15T04:12:55;32.83;;;20.57;;
10643;SDS011;5370;50.132;8.626;2022-12-15T04:15:22;30.73;;;20.17;;
10643;SDS011;5370;50.132;8.626;2022-12-15T04:17:48;32.40;;;21.73;;
10643;SDS011;5370;50.132;8.626;2022-12-15T04:20:13;31.40;;;21.17;;
10643;SDS011;5370;50.132;8.626;2022-12-15T04:22:40;29.63;;;19.90;;
10643;SDS011;5370;50.132;8.626;2022-12-15T04:25:08;32.47;;;22.30;;
10643;SDS011;5370;50.132;8.626;2022-12-15T04:27:58;33.00;;;20.30;;
10643;SDS011;5370;50.132;8.626;2022-12-15T04:30:45;32.07;;;21.43;;
10643;SDS011;5370;50.132;8.626;2022-12-15T04:33:35;30.73;;;20.63;;
10643;SDS011;5370;50.132;8.626;2022-12-15T04:36:21;30.07;;;21.67;;
10643;SDS011;5370;50.132;8.626;2022-12-15T04:39:06;32.47;;;21.23;;
10643;SDS011;5370;50.132;8.626;2022-12-15T04:41:50;33.80;;;21.03;;
10643;SDS011;5370;50.132;8.626;2022-12-15T04:44:36;32.30;;;20.83;;
10643;SDS011;5370;50.132;8.626;2022-12-15T04:47:21;27.90;;;18.27;;
10643;SDS011;5370;50.132;8.626;2022-12-15T04:50:05;28.73;;;20.63;;
10643;SDS011;5370;50.132;8.626;2022-12-15T04:52:50;30.43;;;21.03;;
10643;SDS011;5370;50.132;8.626;2022-12-15T04:55:34;36.00;;;21.37;;
10643;SDS011;5370;50.132;8.626;2022-12-15T04:58:19;33.90;;;19.87;;
10643;SDS011;5370;50.132;8.626;2022-12-15T05:01:03;31.67;;;19.97;;
10643;SDS011;5370;50.132;8.626;2022-12-15T05:03:47;34.07;;;20.07;;
10643;SDS011;5370;50.132;8.626;2022-12-15T05:06:31;31.10;;;18.57;;
10643;SDS011;5370;50.132;8.626;2022-12-15T05:09:15;32.20;;;20.63;;
10643;SDS011;5370;50.132;8.626;2022-12-15T05:12:03;31.27;;;19.40;;
10643;SDS011;5370;50.132;8.626;2022-12-15T05:14:44;31.50;;;20.03;;
10643;SDS011;5370;50.132;8.626;2022-12-15T05:17:28;31.90;;;19.80;;
10643;SDS011;5370;50.132;8.626;2022-12-15T05:20:12;30.67;;;19.70;;
10643;SDS011;5370;50.132;8.626;2022-12-15T05:22:56;35.93;;;23.47;;
10643;SDS011;5370;50.132;8.626;2022-12-15T05:25:41;31.50;;;19.90;;
10643;SDS011;5370;50.132;8.626;2022-12-15T05:28:26;33.63;;;22.87;;
10643;SDS011;5370;50.132;8.626;2022-12-15T05:31:11;28.60;;;19.20;;
10643;SDS011;5370;50.132;8.626;2022-12-15T05:33:55;30.03;;;20.47;;
10643;SDS011;5370;50.132;8.626;2022-12-15T05:36:22;31.03;;;20.77;;
10643;SDS011;5370;50.132;8.626;2022-12-15T05:38:48;34.03;;;20.73;;
10643;SDS011;5370;50.132;8.626;2022-12-15T05:41:17;30.10;;;19.83;;
10643;SDS011;5370;50.132;8.626;2022-12-15T05:43:44;34.60;;;21.50;;
10643;SDS011;5370;50.132;8.626;2022-12-15T05:46:10;32.90;;;21.73;;
10643;SDS011;5370;50.132;8.626;2022-12-15T05:48:35;28.57;;;20.17;;
10643;SDS011;5370;50.132;8.626;2022-12-15T05:51:02;35.67;;;21.13;;
10643;SDS011;5370;50.132;8.626;2022-12-15T05:53:29;32.13;;;20.73;;
10643;SDS011;5370;50.132;8.626;2022-12-15T05:55:59;36.57;;;21.73;;
10643;SDS011;5370;50.132;8.626;2022-12-15T05:58:32;34.80;;;21.63;;
10643;SDS011;5370;50.132;8.626;2022-12-15T06:01:17;33.80;;;22.47;;
10643;SDS011;5370;50.132;8.626;2022-12-15T06:03:43;30.83;;;20.97;;
10643;SDS011;5370;50.132;8.626;2022-12-15T06:06:09;33.50;;;20.17;;
10643;SDS011;5370;50.132;8.626;2022-12-15T06:08:37;30.23;;;19.90;;
10643;SDS011;5370;50.132;8.626;2022-12-15T06:11:05;28.33;;;20.47;;
10643;SDS011;5370;50.132;8.626;2022-12-15T06:13:31;27.97;;;18.40;;
10643;SDS011;5370;50.132;8.626;2022-12-15T06:18:36;32.10;;;19.70;;
10643;SDS011;5370;50.132;8.626;2022-12-15T06:21:07;35.50;;;20.97;;
10643;SDS011;5370;50.132;8.626;2022-12-15T06:23:34;32.40;;;20.50;;
10643;SDS011;5370;50.132;8.626;2022-12-15T06:26:11;30.80;;;19.83;;
10643;SDS011;5370;50.132;8.626;2022-12-15T06:28:44;33.77;;;19.97;;
10643;SDS011;5370;50.132;8.626;2022-12-15T06:31:11;32.93;;;20.50;;
10643;SDS011;5370;50.132;8.626;2022-12-15T06:33:37;32.13;;;19.70;;
10643;SDS011;5370;50.132;8.626;2022-12-15T06:36:03;32.57;;;20.60;;
10643;SDS011;5370;50.132;8.626;2022-12-15T06:38:34;29.27;;;20.30;;
10643;SDS011;5370;50.132;8.626;2022-12-15T06:41:00;29.73;;;20.17;;
10643;SDS011;5370;50.132;8.626;2022-12-15T06:43:27;28.13;;;19.83;;
10643;SDS011;5370;50.132;8.626;2022-12-15T06:45:54;28.40;;;17.93;;
10643;SDS011;5370;50.132;8.626;2022-12-15T06:48:20;32.10;;;20.63;;
10643;SDS011;5370;50.132;8.626;2022-12-15T06:50:47;29.43;;;19.90;;
10643;SDS011;5370;50.132;8.626;2022-12-15T06:53:13;28.17;;;18.73;;
10643;SDS011;5370;50.132;8.626;2022-12-15T06:55:41;27.77;;;19.77;;
10643;SDS011;5370;50.132;8.626;2022-12-15T06:58:07;30.83;;;20.70;;
10643;SDS011;5370;50.132;8.626;2022-12-15T07:00:33;32.03;;;21.23;;
10643;SDS011;5370;50.132;8.626;2022-12-15T07:03:03;33.53;;;20.87;;
10643;SDS011;5370;50.132;8.626;2022-12-15T07:05:31;30.83;;;21.93;;
10643;SDS011;5370;50.132;8.626;2022-12-15T07:07:57;34.80;;;21.90;;
10643;SDS011;5370;50.132;8.626;2022-12-15T07:10:23;28.30;;;19.07;;
10643;SDS011;5370;50.132;8.626;2022-12-15T07:12:48;36.20;;;21.30;;
10643;SDS011;5370;50.132;8.626;2022-12-15T07:15:15;36.80;;;24.23;;
10643;SDS011;5370;50.132;8.626;2022-12-15T07:17:41;37.43;;;22.03;;
10643;SDS011;5370;50.132;8.626;2022-12-15T07:20:07;36.47;;;22.97;;
10643;SDS011;5370;50.132;8.626;2022-12-15T07:22:32;34.87;;;22.17;;
10643;SDS011;5370;50.132;8.626;2022-12-15T07:24:58;48.87;;;30.70;;
10643;SDS011;5370;50.132;8.626;2022-12-15T07:27:24;35.53;;;23.60;;
10643;SDS011;5370;50.132;8.626;2022-12-15T07:29:49;36.20;;;23.07;;
10643;SDS011;5370;50.132;8.626;2022-12-15T07:32:15;37.80;;;22.90;;
10643;SDS011;5370;50.132;8.626;2022-12-15T07:34:40;32.10;;;20.67;;
10643;SDS011;5370;50.132;8.626;2022-12-15T07:37:06;32.67;;;20.73;;
10643;SDS011;5370;50.132;8.626;2022-12-15T07:39:32;32.57;;;20.50;;
10643;SDS011;5370;50.132;8.626;2022-12-15T07:41:58;31.73;;;19.67;;
10643;SDS011;5370;50.132;8.626;2022-12-15T07:44:23;32.63;;;21.67;;
10643;SDS011;5370;50.132;8.626;2022-12-15T07:46:49;32.93;;;19.87;;
10643;SDS011;5370;50.132;8.626;2022-12-15T07:49:15;35.23;;;20.90;;
10643;SDS011;5370;50.132;8.626;2022-12-15T07:51:41;36.43;;;22.23;;
10643;SDS011;5370;50.132;8.626;2022-12-15T07:54:10;34.07;;;21.00;;
10643;SDS011;5370;50.132;8.626;2022-12-15T07:56:37;30.17;;;20.73;;
10643;SDS011;5370;50.132;8.626;2022-12-15T07:59:03;34.10;;;21.80;;
10643;SDS011;5370;50.132;8.626;2022-12-15T08:01:30;33.53;;;21.87;;
10643;SDS011;5370;50.132;8.626;2022-12-15T08:03:56;34.20;;;21.67;;
10643;SDS011;5370;50.132;8.626;2022-12-15T08:06:22;35.37;;;21.67;;
10643;SDS011;5370;50.132;8.626;2022-12-15T08:08:47;36.70;;;23.33;;
10643;SDS011;5370;50.132;8.626;2022-12-15T08:11:13;33.53;;;22.43;;
10643;SDS011;5370;50.132;8.626;2022-12-15T08:13:41;37.97;;;22.80;;
10643;SDS011;5370;50.132;8.626;2022-12-15T08:16:07;37.47;;;23.47;;
10643;SDS011;5370;50.132;8.626;2022-12-15T08:18:33;37.87;;;24.23;;
10643;SDS011;5370;50.132;8.626;2022-12-15T08:21:02;41.73;;;24.77;;
10643;SDS011;5370;50.132;8.626;2022-12-15T08:23:30;38.13;;;24.40;;
10643;SDS011;5370;50.132;8.626;2022-12-15T08:26:03;31.50;;;20.53;;
10643;SDS011;5370;50.132;8.626;2022-12-15T08:28:31;36.83;;;24.07;;
10643;SDS011;5370;50.132;8.626;2022-12-15T08:31:05;36.27;;;21.23;;
10643;SDS011;5370;50.132;8.626;2022-12-15T08:33:33;50.33;;;29.53;;
10643;SDS011;5370;50.132;8.626;2022-12-15T08:36:00;33.30;;;21.00;;
10643;SDS011;5370;50.132;8.626;2022-12-15T08:38:27;37.23;;;21.93;;
10643;SDS011;5370;50.132;8.626;2022-12-15T08:40:53;36.87;;;22.63;;
10643;SDS011;5370;50.132;8.626;2022-12-15T08:43:18;34.43;;;24.17;;
10643;SDS011;5370;50.132;8.626;2022-12-15T08:45:44;38.30;;;23.60;;
10643;SDS011;5370;50.132;8.626;2022-12-15T08:48:10;37.97;;;23.97;;
10643;SDS011;5370;50.132;8.626;2022-12-15T08:50:35;37.90;;;23.67;;
10643;SDS011;5370;50.132;8.626;2022-12-15T08:53:01;37.47;;;21.47;;
10643;SDS011;5370;50.132;8.626;2022-12-15T08:55:26;33.63;;;20.63;;
10643;SDS011;5370;50.132;8.626;2022-12-15T08:57:55;33.60;;;21.93;;
10643;SDS011;5370;50.132;8.626;2022-12-15T09:00:20;44.43;;;23.50;;
10643;SDS011;5370;50.132;8.626;2022-12-15T09:02:46;37.93;;;24.53;;
10643;SDS011;5370;50.132;8.626;2022-12-15T09:05:11;40.47;;;24.43;;
10643;SDS011;5370;50.132;8.626;2022-12-15T09:07:37;33.43;;;22.77;;
10643;SDS011;5370;50.132;8.626;2022-12-15T09:10:02;41.10;;;23.17;;
10643;SDS011;5370;50.132;8.626;2022-12-15T09:12:28;38.17;;;24.20;;
10643;SDS011;5370;50.132;8.626;2022-12-15T09:14:54;39.53;;;22.90;;
10643;SDS011;5370;50.132;8.626;2022-12-15T09:17:19;41.40;;;26.17;;
10643;SDS011;5370;50.132;8.626;2022-12-15T09:19:45;66.70;;;37.87;;
10643;SDS011;5370;50.132;8.626;2022-12-15T09:22:10;38.70;;;22.73;;
10643;SDS011;5370;50.132;8.626;2022-12-15T09:24:36;37.67;;;22.90;;
10643;SDS011;5370;50.132;8.626;2022-12-15T09:27:02;32.90;;;22.03;;
10643;SDS011;5370;50.132;8.626;2022-12-15T09:29:28;36.10;;;22.47;;
10643;SDS011;5370;50.132;8.626;2022-12-15T09:31:53;35.90;;;22.03;;
10643;SDS011;5370;50.132;8.626;2022-12-15T09:34:19;38.60;;;23.90;;
10643;SDS011;5370;50.132;8.626;2022-12-15T09:36:44;33.33;;;21.53;;
10643;SDS011;5370;50.132;8.626;2022-12-15T09:39:10;33.40;;;22.90;;
10643;SDS011;5370;50.132;8.626;2022-12-15T09:41:36;38.67;;;23.73;;
10643;SDS011;5370;50.132;8.626;2022-12-15T09:44:04;34.37;;;20.80;;
10643;SDS011;5370;50.132;8.626;2022-12-15T09:49:57;40.67;;;23.43;;
10643;SDS011;5370;50.132;8.626;2022-12-15T09:52:29;36.67;;;21.87;;
10643;SDS011;5370;50.132;8.626;2022-12-15T09:54:58;36.40;;;22.73;;
10643;SDS011;5370;50.132;8.626;2022-12-15T09:57:30;34.40;;;22.33;;
10643;SDS011;5370;50.132;8.626;2022-12-15T10:05:37;35.73;;;23.30;;
10643;SDS011;5370;50.132;8.626;2022-12-15T10:08:23;39.93;;;25.27;;
10643;SDS011;5370;50.132;8.626;2022-12-15T10:13:57;36.37;;;21.70;;
10643;SDS011;5370;50.132;8.626;2022-12-15T10:19:11;32.93;;;20.87;;
10643;SDS011;5370;50.132;8.626;2022-12-15T10:22:01;36.83;;;19.63;;
10643;SDS011;5370;50.132;8.626;2022-12-15T10:24:28;40.40;;;22.93;;
10643;SDS011;5370;50.132;8.626;2022-12-15T10:29:59;37.73;;;22.03;;
10643;SDS011;5370;50.132;8.626;2022-12-15T10:32:30;35.43;;;22.13;;
10643;SDS011;5370;50.132;8.626;2022-12-15T10:35:16;40.73;;;23.00;;
10643;SDS011;5370;50.132;8.626;2022-12-15T10:37:42;39.67;;;22.87;;
10643;SDS011;5370;50.132;8.626;2022-12-15T10:40:07;40.47;;;21.97;;
10643;SDS011;5370;50.132;8.626;2022-12-15T10:42:44;36.87;;;21.47;;
10643;SDS011;5370;50.132;8.626;2022-12-15T10:47:59;39.60;;;23.83;;
10643;SDS011;5370;50.132;8.626;2022-12-15T10:50:31;39.67;;;24.47;;
10643;SDS011;5370;50.132;8.626;2022-12-15T10:52:57;40.53;;;24.57;;
10643;SDS011;5370;50.132;8.626;2022-12-15T10:58:02;44.47;;;23.90;;
10643;SDS011;5370;50.132;8.626;2022-12-15T11:00:30;39.63;;;22.80;;
10643;SDS011;5370;50.132;8.626;2022-12-15T11:02:57;45.20;;;27.97;;
10643;SDS011;5370;50.132;8.626;2022-12-15T11:05:23;59.27;;;30.97;;
10643;SDS011;5370;50.132;8.626;2022-12-15T11:10:47;40.47;;;23.17;;
10643;SDS011;5370;50.132;8.626;2022-12-15T11:13:38;39.80;;;23.83;;
10643;SDS011;5370;50.132;8.626;2022-12-15T11:16:17;37.83;;;22.17;;
10643;SDS011;5370;50.132;8.626;2022-12-15T11:18:45;40.70;;;23.40;;
10643;SDS011;5370;50.132;8.626;2022-12-15T11:21:19;36.87;;;22.70;;
10643;SDS011;5370;50.132;8.626;2022-12-15T11:29:22;32.57;;;18.60;;
10643;SDS011;5370;50.132;8.626;2022-12-15T11:31:58;42.87;;;24.83;;
10643;SDS011;5370;50.132;8.626;2022-12-15T11:34:37;40.07;;;23.00;;
10643;SDS011;5370;50.132;8.626;2022-12-15T11:45:37;42.33;;;25.13;;
10643;SDS011;5370;50.132;8.626;2022-12-15T11:48:15;42.80;;;25.17;;
10643;SDS011;5370;50.132;8.626;2022-12-15T12:06:45;39.80;;;24.47;;
10643;SDS011;5370;50.132;8.626;2022-12-15T12:09:35;39.13;;;22.80;;
10643;SDS011;5370;50.132;8.626;2022-12-15T12:20:21;34.50;;;22.53;;
10643;SDS011;5370;50.132;8.626;2022-12-15T12:22:54;31.17;;;16.43;;
10643;SDS011;5370;50.132;8.626;2022-12-15T12:25:21;40.57;;;24.03;;
10643;SDS011;5370;50.132;8.626;2022-12-15T12:27:57;36.60;;;23.97;;
10643;SDS011;5370;50.132;8.626;2022-12-15T12:30:28;40.67;;;25.87;;
10643;SDS011;5370;50.132;8.626;2022-12-15T12:33:22;35.80;;;21.90;;
10643;SDS011;5370;50.132;8.626;2022-12-15T12:35:59;32.60;;;17.87;;
10643;SDS011;5370;50.132;8.626;2022-12-15T12:38:45;39.93;;;24.37;;
10643;SDS011;5370;50.132;8.626;2022-12-15T12:43:45;29.07;;;16.33;;
10643;SDS011;5370;50.132;8.626;2022-12-15T12:46:23;42.20;;;26.13;;
10643;SDS011;5370;50.132;8.626;2022-12-15T12:49:05;43.80;;;26.03;;
10643;SDS011;5370;50.132;8.626;2022-12-15T12:51:48;37.93;;;20.47;;
10643;SDS011;5370;50.132;8.626;2022-12-15T12:57:01;39.87;;;21.83;;
10643;SDS011;5370;50.132;8.626;2022-12-15T12:59:36;42.23;;;27.37;;
10643;SDS011;5370;50.132;8.626;2022-12-15T13:05:34;27.10;;;15.60;;
10643;SDS011;5370;50.132;8.626;2022-12-15T13:07:53;38.97;;;23.20;;
10643;SDS011;5370;50.132;8.626;2022-12-15T13:10:32;35.90;;;20.93;;
10643;SDS011;5370;50.132;8.626;2022-12-15T13:13:48;38.10;;;24.47;;
10643;SDS011;5370;50.132;8.626;2022-12-15T13:15:57;35.20;;;20.37;;
10643;SDS011;5370;50.132;8.626;2022-12-15T13:24:18;34.67;;;18.33;;
10643;SDS011;5370;50.132;8.626;2022-12-15T13:29:54;41.17;;;20.20;;
10643;SDS011;5370;50.132;8.626;2022-12-15T13:32:38;38.30;;;22.17;;
10643;SDS011;5370;50.132;8.626;2022-12-15T13:37:42;42.60;;;25.83;;
10643;SDS011;5370;50.132;8.626;2022-12-15T13:42:57;44.20;;;27.83;;
10643;SDS011;5370;50.132;8.626;2022-12-15T13:48:04;44.93;;;26.77;;
10643;SDS011;5370;50.132;8.626;2022-12-15T13:50:39;35.10;;;21.83;;
10643;SDS011;5370;50.132;8.626;2022-12-15T13:53:14;39.47;;;23.93;;
10643;SDS011;5370;50.132;8.626;2022-12-15T13:59:09;37.90;;;22.80;;
10643;SDS011;5370;50.132;8.626;2022-12-15T14:01:49;29.63;;;18.43;;
10643;SDS011;5370;50.132;8.626;2022-12-15T14:04:15;34.63;;;22.20;;
10643;SDS011;5370;50.132;8.626;2022-12-15T14:06:46;32.13;;;16.83;;
10643;SDS011;5370;50.132;8.626;2022-12-15T14:09:15;35.30;;;21.40;;
10643;SDS011;5370;50.132;8.626;2022-12-15T14:11:45;34.70;;;19.53;;
10643;SDS011;5370;50.132;8.626;2022-12-15T14:14:20;40.80;;;22.97;;
10643;SDS011;5370;50.132;8.626;2022-12-15T14:16:52;37.47;;;21.90;;
10643;SDS011;5370;50.132;8.626;2022-12-15T14:19:21;37.97;;;23.80;;
10643;SDS011;5370;50.132;8.626;2022-12-15T14:21:47;39.03;;;24.07;;
10643;SDS011;5370;50.132;8.626;2022-12-15T14:24:29;32.67;;;19.53;;
10643;SDS011;5370;50.132;8.626;2022-12-15T14:26:57;36.70;;;22.63;;
10643;SDS011;5370;50.132;8.626;2022-12-15T14:29:23;37.80;;;23.17;;
10643;SDS011;5370;50.132;8.626;2022-12-15T14:31:50;40.17;;;25.17;;
10643;SDS011;5370;50.132;8.626;2022-12-15T14:34:42;40.87;;;26.63;;
10643;SDS011;5370;50.132;8.626;2022-12-15T14:37:10;43.00;;;27.90;;
10643;SDS011;5370;50.132;8.626;2022-12-15T14:39:43;42.47;;;25.50;;
10643;SDS011;5370;50.132;8.626;2022-12-15T14:42:21;39.23;;;25.13;;
10643;SDS011;5370;50.132;8.626;2022-12-15T14:44:51;38.57;;;24.03;;
10643;SDS011;5370;50.132;8.626;2022-12-15T14:47:18;41.63;;;25.50;;
10643;SDS011;5370;50.132;8.626;2022-12-15T14:49:52;45.13;;;26.40;;
10643;SDS011;5370;50.132;8.626;2022-12-15T14:52:34;48.70;;;27.43;;
10643;SDS011;5370;50.132;8.626;2022-12-15T14:55:23;42.37;;;25.13;;
10643;SDS011;5370;50.132;8.626;2022-12-15T14:57:58;40.83;;;24.33;;
10643;SDS011;5370;50.132;8.626;2022-12-15T15:00:25;38.17;;;22.20;;
10643;SDS011;5370;50.132;8.626;2022-12-15T15:05:39;40.17;;;25.60;;
10643;SDS011;5370;50.132;8.626;2022-12-15T15:08:14;34.80;;;19.07;;
10643;SDS011;5370;50.132;8.626;2022-12-15T15:10:48;38.53;;;24.47;;
10643;SDS011;5370;50.132;8.626;2022-12-15T15:13:23;43.47;;;27.10;;
10643;SDS011;5370;50.132;8.626;2022-12-15T15:15:51;39.07;;;24.17;;
10643;SDS011;5370;50.132;8.626;2022-12-15T15:18:23;48.43;;;28.40;;
10643;SDS011;5370;50.132;8.626;2022-12-15T15:20:58;48.23;;;27.23;;
10643;SDS011;5370;50.132;8.626;2022-12-15T15:23:27;44.80;;;27.23;;
10643;SDS011;5370;50.132;8.626;2022-12-15T15:25:54;47.57;;;28.37;;
10643;SDS011;5370;50.132;8.626;2022-12-15T15:28:25;46.00;;;25.63;;
10643;SDS011;5370;50.132;8.626;2022-12-15T15:30:56;47.67;;;27.27;;
10643;SDS011;5370;50.132;8.626;2022-12-15T15:33:29;47.83;;;26.33;;
10643;SDS011;5370;50.132;8.626;2022-12-15T15:35:55;43.50;;;25.80;;
10643;SDS011;5370;50.132;8.626;2022-12-15T15:38:32;48.07;;;27.30;;
10643;SDS011;5370;50.132;8.626;2022-12-15T15:41:00;44.23;;;26.33;;
10643;SDS011;5370;50.132;8.626;2022-12-15T15:43:35;46.57;;;26.57;;
10643;SDS011;5370;50.132;8.626;2022-12-15T15:46:02;46.87;;;28.17;;
10643;SDS011;5370;50.132;8.626;2022-12-15T15:48:31;40.27;;;22.63;;
10643;SDS011;5370;50.132;8.626;2022-12-15T15:50:59;42.37;;;25.83;;
10643;SDS011;5370;50.132;8.626;2022-12-15T15:53:26;42.97;;;25.47;;
10643;SDS011;5370;50.132;8.626;2022-12-15T15:55:55;43.90;;;25.10;;
10643;SDS011;5370;50.132;8.626;2022-12-15T15:58:21;43.53;;;26.70;;
10643;SDS011;5370;50.132;8.626;2022-12-15T16:00:47;49.20;;;27.80;;
10643;SDS011;5370;50.132;8.626;2022-12-15T16:03:12;50.03;;;27.60;;
10643;SDS011;5370;50.132;8.626;2022-12-15T16:05:38;49.27;;;27.37;;
10643;SDS011;5370;50.132;8.626;2022-12-15T16:08:05;44.30;;;24.70;;
10643;SDS011;5370;50.132;8.626;2022-12-15T16:10:33;41.30;;;26.67;;
10643;SDS011;5370;50.132;8.626;2022-12-15T16:12:59;42.77;;;24.93;;
10643;SDS011;5370;50.132;8.626;2022-12-15T16:15:27;46.13;;;25.70;;
10643;SDS011;5370;50.132;8.626;2022-12-15T16:17:55;52.33;;;28.50;;
10643;SDS011;5370;50.132;8.626;2022-12-15T16:20:22;42.80;;;25.93;;
10643;SDS011;5370;50.132;8.626;2022-12-15T16:22:53;45.20;;;24.43;;
10643;SDS011;5370;50.132;8.626;2022-12-15T16:25:28;47.07;;;25.67;;
10643;SDS011;5370;50.132;8.626;2022-12-15T16:28:21;38.97;;;21.03;;
10643;SDS011;5370;50.132;8.626;2022-12-15T16:30:49;46.17;;;25.60;;
10643;SDS011;5370;50.132;8.626;2022-12-15T16:33:15;47.83;;;27.10;;
10643;SDS011;5370;50.132;8.626;2022-12-15T16:35:41;50.47;;;27.20;;
10643;SDS011;5370;50.132;8.626;2022-12-15T16:38:15;44.93;;;27.00;;
10643;SDS011;5370;50.132;8.626;2022-12-15T16:40:49;44.87;;;26.70;;
10643;SDS011;5370;50.132;8.626;2022-12-15T16:43:17;45.00;;;26.03;;
10643;SDS011;5370;50.132;8.626;2022-12-15T16:45:48;45.23;;;25.23;;
10643;SDS011;5370;50.132;8.626;2022-12-15T16:48:15;50.13;;;30.47;;
10643;SDS011;5370;50.132;8.626;2022-12-15T16:50:45;49.00;;;27.80;;
10643;SDS011;5370;50.132;8.626;2022-12-15T16:53:15;45.23;;;25.57;;
10643;SDS011;5370;50.132;8.626;2022-12-15T16:55:43;46.33;;;28.90;;
10643;SDS011;5370;50.132;8.626;2022-12-15T16:58:12;46.87;;;27.40;;